Terminal Aerodrome Forecast
Issued by NWS Tulsa, OK

Home | Current Version | Previous Version | Text Only | Print | Product List | Glossary On
Versions: 1 2 3 4 5 6 7 8 9 10 11 12
000
FTUS44 KTSA 061700
TAFFSM
TAF
KFSM 061720Z 0618/0718 14012G20KT P6SM BKN100
     FM062000 14012G20KT P6SM BKN050
     FM070100 11007KT P6SM OVC050
     FM070900 08007KT P6SM SCT015 BKN100
     FM071500 16010KT P6SM SCT025=

USA.gov is the U.S. government's official web portal to all federal, state and local government web resources and services.